sensor_id;sensor_type;location;lat;lon;timestamp;pressure;altitude;pressure_sealevel;temperature;humidity
21877;BME280;11103;43.788;23.710;2023-04-26T00:00:16;-14922.56;;;-144.67;100.00
21877;BME280;11103;43.788;23.710;2023-04-26T00:02:41;-14922.56;;;-144.67;100.00
21877;BME280;11103;43.788;23.710;2023-04-26T00:05:07;-14922.56;;;-144.67;100.00
21877;BME280;11103;43.788;23.710;2023-04-26T00:07:33;-14922.56;;;-144.67;100.00
21877;BME280;11103;43.788;23.710;2023-04-26T00:10:00;-14922.56;;;-144.67;100.00
21877;BME280;11103;43.788;23.710;2023-04-26T00:12:25;-14922.56;;;-144.67;100.00
21877;BME280;11103;43.788;23.710;2023-04-26T00:14:51;-14922.56;;;-144.67;100.00
21877;BME280;11103;43.788;23.710;2023-04-26T00:17:16;-14922.56;;;-144.67;100.00
21877;BME280;11103;43.788;23.710;2023-04-26T00:19:42;-14922.56;;;-144.67;100.00
21877;BME280;11103;43.788;23.710;2023-04-26T00:22:07;-14922.56;;;-144.67;100.00
21877;BME280;11103;43.788;23.710;2023-04-26T00:24:33;-14922.56;;;-144.67;100.00
21877;BME280;11103;43.788;23.710;2023-04-26T00:26:59;-14922.56;;;-144.67;100.00
21877;BME280;11103;43.788;23.710;2023-04-26T00:29:25;-14922.56;;;-144.67;100.00
21877;BME280;11103;43.788;23.710;2023-04-26T00:31:51;-14922.56;;;-144.67;100.00
21877;BME280;11103;43.788;23.710;2023-04-26T00:34:16;-14922.56;;;-144.67;100.00
21877;BME280;11103;43.788;23.710;2023-04-26T00:36:42;-14922.56;;;-144.67;100.00
21877;BME280;11103;43.788;23.710;2023-04-26T00:39:07;-14922.56;;;-144.67;100.00
21877;BME280;11103;43.788;23.710;2023-04-26T00:41:33;-14922.56;;;-144.67;100.00
21877;BME280;11103;43.788;23.710;2023-04-26T00:43:59;-14922.56;;;-144.67;100.00
21877;BME280;11103;43.788;23.710;2023-04-26T00:46:24;-14922.56;;;-144.67;100.00
21877;BME280;11103;43.788;23.710;2023-04-26T00:48:53;-14922.56;;;-144.67;100.00
21877;BME280;11103;43.788;23.710;2023-04-26T00:51:18;-14922.56;;;-144.67;100.00
21877;BME280;11103;43.788;23.710;2023-04-26T00:53:44;-14922.56;;;-144.67;100.00
21877;BME280;11103;43.788;23.710;2023-04-26T00:56:11;-14922.56;;;-144.67;100.00
21877;BME280;11103;43.788;23.710;2023-04-26T00:58:37;-14922.56;;;-144.67;100.00
21877;BME280;11103;43.788;23.710;2023-04-26T01:01:03;-14922.56;;;-144.67;100.00
21877;BME280;11103;43.788;23.710;2023-04-26T01:03:29;-14922.56;;;-144.67;100.00
21877;BME280;11103;43.788;23.710;2023-04-26T01:05:54;-14922.56;;;-144.67;100.00
21877;BME280;11103;43.788;23.710;2023-04-26T01:08:20;-14922.56;;;-144.67;100.00
21877;BME280;11103;43.788;23.710;2023-04-26T01:10:47;-14922.56;;;-144.67;100.00
21877;BME280;11103;43.788;23.710;2023-04-26T01:13:14;-14922.56;;;-144.67;100.00
21877;BME280;11103;43.788;23.710;2023-04-26T01:15:46;-14922.56;;;-144.67;100.00
21877;BME280;11103;43.788;23.710;2023-04-26T01:18:12;-14922.56;;;-144.67;100.00
21877;BME280;11103;43.788;23.710;2023-04-26T01:20:41;-14922.56;;;-144.67;100.00
21877;BME280;11103;43.788;23.710;2023-04-26T01:23:07;-14922.56;;;-144.67;100.00
21877;BME280;11103;43.788;23.710;2023-04-26T01:25:33;-14922.56;;;-144.67;100.00
21877;BME280;11103;43.788;23.710;2023-04-26T01:27:59;-14922.56;;;-144.67;100.00
21877;BME280;11103;43.788;23.710;2023-04-26T01:30:24;-14922.56;;;-144.67;100.00
21877;BME280;11103;43.788;23.710;2023-04-26T01:32:50;-14922.56;;;-144.67;100.00
21877;BME280;11103;43.788;23.710;2023-04-26T01:35:16;-14922.56;;;-144.67;100.00
21877;BME280;11103;43.788;23.710;2023-04-26T01:37:42;-14922.56;;;-144.67;100.00
21877;BME280;11103;43.788;23.710;2023-04-26T01:40:08;-14922.56;;;-144.67;100.00
21877;BME280;11103;43.788;23.710;2023-04-26T01:42:34;-14922.56;;;-144.67;100.00
21877;BME280;11103;43.788;23.710;2023-04-26T01:45:00;-14922.56;;;-144.67;100.00
21877;BME280;11103;43.788;23.710;2023-04-26T01:47:25;-14922.56;;;-144.67;100.00
21877;BME280;11103;43.788;23.710;2023-04-26T01:49:51;-14922.56;;;-144.67;100.00
21877;BME280;11103;43.788;23.710;2023-04-26T01:52:17;-14922.56;;;-144.67;100.00
21877;BME280;11103;43.788;23.710;2023-04-26T01:54:42;-14922.56;;;-144.67;100.00
21877;BME280;11103;43.788;23.710;2023-04-26T01:57:08;-14922.56;;;-144.67;100.00
21877;BME280;11103;43.788;23.710;2023-04-26T01:59:33;-14922.56;;;-144.67;100.00
21877;BME280;11103;43.788;23.710;2023-04-26T02:01:59;-14922.56;;;-144.67;100.00
21877;BME280;11103;43.788;23.710;2023-04-26T02:04:25;-14922.56;;;-144.67;100.00
21877;BME280;11103;43.788;23.710;2023-04-26T02:06:50;-14922.56;;;-144.67;100.00
21877;BME280;11103;43.788;23.710;2023-04-26T02:09:16;-14922.56;;;-144.67;100.00
21877;BME280;11103;43.788;23.710;2023-04-26T02:11:42;-14922.56;;;-144.67;100.00
21877;BME280;11103;43.788;23.710;2023-04-26T02:14:07;-14922.56;;;-144.67;100.00
21877;BME280;11103;43.788;23.710;2023-04-26T02:16:33;-14922.56;;;-144.67;100.00
21877;BME280;11103;43.788;23.710;2023-04-26T02:18:58;-14922.56;;;-144.67;100.00
21877;BME280;11103;43.788;23.710;2023-04-26T02:21:24;-14922.56;;;-144.67;100.00
21877;BME280;11103;43.788;23.710;2023-04-26T02:23:49;-14922.56;;;-144.67;100.00
21877;BME280;11103;43.788;23.710;2023-04-26T02:26:15;-14922.56;;;-144.67;100.00
21877;BME280;11103;43.788;23.710;2023-04-26T02:28:40;-14922.56;;;-144.67;100.00
21877;BME280;11103;43.788;23.710;2023-04-26T02:31:08;-14922.56;;;-144.67;100.00
21877;BME280;11103;43.788;23.710;2023-04-26T02:33:34;-14922.56;;;-144.67;100.00
21877;BME280;11103;43.788;23.710;2023-04-26T02:36:05;-14922.56;;;-144.67;100.00
21877;BME280;11103;43.788;23.710;2023-04-26T02:38:34;-14922.56;;;-144.67;100.00
21877;BME280;11103;43.788;23.710;2023-04-26T02:41:01;-14922.56;;;-144.67;100.00
21877;BME280;11103;43.788;23.710;2023-04-26T02:43:27;-14922.56;;;-144.67;100.00
21877;BME280;11103;43.788;23.710;2023-04-26T02:45:52;-14922.56;;;-144.67;100.00
21877;BME280;11103;43.788;23.710;2023-04-26T02:48:18;-14922.56;;;-144.67;100.00
21877;BME280;11103;43.788;23.710;2023-04-26T02:50:43;-14922.56;;;-144.67;100.00
21877;BME280;11103;43.788;23.710;2023-04-26T02:53:09;-14922.56;;;-144.67;100.00
21877;BME280;11103;43.788;23.710;2023-04-26T02:55:36;-14922.56;;;-144.67;100.00
21877;BME280;11103;43.788;23.710;2023-04-26T02:58:02;-14922.56;;;-144.67;100.00
21877;BME280;11103;43.788;23.710;2023-04-26T03:00:27;-14922.56;;;-144.67;100.00
21877;BME280;11103;43.788;23.710;2023-04-26T03:02:52;-14922.56;;;-144.67;100.00
21877;BME280;11103;43.788;23.710;2023-04-26T03:05:18;-14922.56;;;-144.67;100.00
21877;BME280;11103;43.788;23.710;2023-04-26T03:07:44;-14922.56;;;-144.67;100.00
21877;BME280;11103;43.788;23.710;2023-04-26T03:10:10;-14922.56;;;-144.67;100.00
21877;BME280;11103;43.788;23.710;2023-04-26T03:12:35;-14922.56;;;-144.67;100.00
21877;BME280;11103;43.788;23.710;2023-04-26T03:15:01;-14922.56;;;-144.67;100.00
21877;BME280;11103;43.788;23.710;2023-04-26T03:17:28;-14922.56;;;-144.67;100.00
21877;BME280;11103;43.788;23.710;2023-04-26T03:19:53;-14922.56;;;-144.67;100.00
21877;BME280;11103;43.788;23.710;2023-04-26T03:22:19;-14922.56;;;-144.67;100.00
21877;BME280;11103;43.788;23.710;2023-04-26T03:24:45;-14922.56;;;-144.67;100.00
21877;BME280;11103;43.788;23.710;2023-04-26T03:27:12;-14922.56;;;-144.67;100.00
21877;BME280;11103;43.788;23.710;2023-04-26T03:29:37;-14922.56;;;-144.67;100.00
21877;BME280;11103;43.788;23.710;2023-04-26T03:32:03;-14922.56;;;-144.67;100.00
21877;BME280;11103;43.788;23.710;2023-04-26T03:34:29;-14922.56;;;-144.67;100.00
21877;BME280;11103;43.788;23.710;2023-04-26T03:36:54;-14922.56;;;-144.67;100.00
21877;BME280;11103;43.788;23.710;2023-04-26T03:39:20;-14922.56;;;-144.67;100.00
21877;BME280;11103;43.788;23.710;2023-04-26T03:41:46;-14922.56;;;-144.67;100.00
21877;BME280;11103;43.788;23.710;2023-04-26T03:44:11;-14922.56;;;-144.67;100.00
21877;BME280;11103;43.788;23.710;2023-04-26T03:46:37;-14922.56;;;-144.67;100.00
21877;BME280;11103;43.788;23.710;2023-04-26T03:49:02;-14922.56;;;-144.67;100.00
21877;BME280;11103;43.788;23.710;2023-04-26T03:51:28;-14922.56;;;-144.67;100.00
21877;BME280;11103;43.788;23.710;2023-04-26T03:53:54;-14922.56;;;-144.67;100.00
21877;BME280;11103;43.788;23.710;2023-04-26T03:56:19;-14922.56;;;-144.67;100.00
21877;BME280;11103;43.788;23.710;2023-04-26T03:58:45;-14922.56;;;-144.67;100.00
21877;BME280;11103;43.788;23.710;2023-04-26T04:01:11;-14922.56;;;-144.67;100.00
21877;BME280;11103;43.788;23.710;2023-04-26T04:03:36;-14922.56;;;-144.67;100.00
21877;BME280;11103;43.788;23.710;2023-04-26T04:06:02;-14922.56;;;-144.67;100.00
21877;BME280;11103;43.788;23.710;2023-04-26T04:08:27;-14922.56;;;-144.67;100.00
21877;BME280;11103;43.788;23.710;2023-04-26T04:10:53;-14922.56;;;-144.67;100.00
21877;BME280;11103;43.788;23.710;2023-04-26T04:13:18;-14922.56;;;-144.67;100.00
21877;BME280;11103;43.788;23.710;2023-04-26T04:15:43;-14922.56;;;-144.67;100.00
21877;BME280;11103;43.788;23.710;2023-04-26T04:18:09;-14922.56;;;-144.67;100.00
21877;BME280;11103;43.788;23.710;2023-04-26T04:20:34;-14922.56;;;-144.67;100.00
21877;BME280;11103;43.788;23.710;2023-04-26T04:23:00;-14922.56;;;-144.67;100.00
21877;BME280;11103;43.788;23.710;2023-04-26T04:25:28;-14922.56;;;-144.67;100.00
21877;BME280;11103;43.788;23.710;2023-04-26T04:27:54;-14922.56;;;-144.67;100.00
21877;BME280;11103;43.788;23.710;2023-04-26T04:30:19;-14922.56;;;-144.67;100.00
21877;BME280;11103;43.788;23.710;2023-04-26T04:32:45;-14922.56;;;-144.67;100.00
21877;BME280;11103;43.788;23.710;2023-04-26T04:35:11;-14922.56;;;-144.67;100.00
21877;BME280;11103;43.788;23.710;2023-04-26T04:37:37;-14922.56;;;-144.67;100.00
21877;BME280;11103;43.788;23.710;2023-04-26T04:40:03;-14922.56;;;-144.67;100.00
21877;BME280;11103;43.788;23.710;2023-04-26T04:42:28;-14922.56;;;-144.67;100.00
21877;BME280;11103;43.788;23.710;2023-04-26T04:44:54;-14922.56;;;-144.67;100.00
21877;BME280;11103;43.788;23.710;2023-04-26T04:47:21;-14922.56;;;-144.67;100.00
21877;BME280;11103;43.788;23.710;2023-04-26T04:49:46;-14922.56;;;-144.67;100.00
21877;BME280;11103;43.788;23.710;2023-04-26T04:52:11;-14922.56;;;-144.67;100.00
21877;BME280;11103;43.788;23.710;2023-04-26T04:54:37;-14922.56;;;-144.67;100.00
21877;BME280;11103;43.788;23.710;2023-04-26T04:57:02;-14922.56;;;-144.67;100.00
21877;BME280;11103;43.788;23.710;2023-04-26T04:59:28;-14922.56;;;-144.67;100.00
21877;BME280;11103;43.788;23.710;2023-04-26T05:01:54;-14922.56;;;-144.67;100.00
21877;BME280;11103;43.788;23.710;2023-04-26T05:04:20;-14922.56;;;-144.67;100.00
21877;BME280;11103;43.788;23.710;2023-04-26T05:06:45;-14922.56;;;-144.67;100.00
21877;BME280;11103;43.788;23.710;2023-04-26T05:09:11;-14922.56;;;-144.67;100.00
21877;BME280;11103;43.788;23.710;2023-04-26T05:11:36;-14922.56;;;-144.67;100.00
21877;BME280;11103;43.788;23.710;2023-04-26T05:14:02;-14922.56;;;-144.67;100.00
21877;BME280;11103;43.788;23.710;2023-04-26T05:16:27;-14922.56;;;-144.67;100.00
21877;BME280;11103;43.788;23.710;2023-04-26T05:18:53;-14922.56;;;-144.67;100.00
21877;BME280;11103;43.788;23.710;2023-04-26T05:21:18;-14922.56;;;-144.67;100.00
21877;BME280;11103;43.788;23.710;2023-04-26T05:23:44;-14922.56;;;-144.67;100.00
21877;BME280;11103;43.788;23.710;2023-04-26T05:26:13;-14922.56;;;-144.67;100.00
21877;BME280;11103;43.788;23.710;2023-04-26T05:28:39;-14922.56;;;-144.67;100.00
21877;BME280;11103;43.788;23.710;2023-04-26T05:31:04;-14922.56;;;-144.67;100.00
21877;BME280;11103;43.788;23.710;2023-04-26T05:33:30;-14922.56;;;-144.67;100.00
21877;BME280;11103;43.788;23.710;2023-04-26T05:35:55;-14922.56;;;-144.67;100.00
21877;BME280;11103;43.788;23.710;2023-04-26T05:38:22;-14922.56;;;-144.67;100.00
21877;BME280;11103;43.788;23.710;2023-04-26T05:40:47;-14922.56;;;-144.67;100.00
21877;BME280;11103;43.788;23.710;2023-04-26T05:43:13;-14922.56;;;-144.67;100.00
21877;BME280;11103;43.788;23.710;2023-04-26T05:45:39;-14922.56;;;-144.67;100.00
21877;BME280;11103;43.788;23.710;2023-04-26T05:48:04;-14922.56;;;-144.67;100.00
21877;BME280;11103;43.788;23.710;2023-04-26T05:50:30;-14922.56;;;-144.67;100.00
21877;BME280;11103;43.788;23.710;2023-04-26T05:52:56;-14922.56;;;-144.67;100.00
21877;BME280;11103;43.788;23.710;2023-04-26T05:55:22;-14922.56;;;-144.67;100.00
21877;BME280;11103;43.788;23.710;2023-04-26T05:57:47;-14922.56;;;-144.67;100.00
21877;BME280;11103;43.788;23.710;2023-04-26T06:00:13;-14922.56;;;-144.67;100.00
21877;BME280;11103;43.788;23.710;2023-04-26T06:02:39;-14922.56;;;-144.67;100.00
21877;BME280;11103;43.788;23.710;2023-04-26T06:05:05;-14922.56;;;-144.67;100.00
21877;BME280;11103;43.788;23.710;2023-04-26T06:07:31;-14922.56;;;-144.67;100.00
21877;BME280;11103;43.788;23.710;2023-04-26T06:09:57;-14922.56;;;-144.67;100.00
21877;BME280;11103;43.788;23.710;2023-04-26T06:12:22;-14922.56;;;-144.67;100.00
21877;BME280;11103;43.788;23.710;2023-04-26T06:14:48;-14922.56;;;-144.67;100.00
21877;BME280;11103;43.788;23.710;2023-04-26T06:17:13;-14922.56;;;-144.67;100.00
21877;BME280;11103;43.788;23.710;2023-04-26T06:19:39;-14922.56;;;-144.67;100.00
21877;BME280;11103;43.788;23.710;2023-04-26T06:22:04;-14922.56;;;-144.67;100.00
21877;BME280;11103;43.788;23.710;2023-04-26T06:24:29;-14922.56;;;-144.67;100.00
21877;BME280;11103;43.788;23.710;2023-04-26T06:26:55;-14922.56;;;-144.67;100.00
21877;BME280;11103;43.788;23.710;2023-04-26T06:29:20;-14922.56;;;-144.67;100.00
21877;BME280;11103;43.788;23.710;2023-04-26T06:31:46;-14922.56;;;-144.67;100.00
21877;BME280;11103;43.788;23.710;2023-04-26T06:34:11;-14922.56;;;-144.67;100.00
21877;BME280;11103;43.788;23.710;2023-04-26T06:36:37;-14922.56;;;-144.67;100.00
21877;BME280;11103;43.788;23.710;2023-04-26T06:39:02;-14922.56;;;-144.67;100.00
21877;BME280;11103;43.788;23.710;2023-04-26T06:41:28;-14922.56;;;-144.67;100.00
21877;BME280;11103;43.788;23.710;2023-04-26T06:43:53;-14922.56;;;-144.67;100.00
21877;BME280;11103;43.788;23.710;2023-04-26T06:46:19;-14922.56;;;-144.67;100.00
21877;BME280;11103;43.788;23.710;2023-04-26T06:48:45;-14922.56;;;-144.67;100.00
21877;BME280;11103;43.788;23.710;2023-04-26T06:51:10;-14922.56;;;-144.67;100.00
21877;BME280;11103;43.788;23.710;2023-04-26T06:53:36;-14922.56;;;-144.67;100.00
21877;BME280;11103;43.788;23.710;2023-04-26T06:56:01;-14922.56;;;-144.67;100.00
21877;BME280;11103;43.788;23.710;2023-04-26T06:58:27;-14922.56;;;-144.67;100.00
21877;BME280;11103;43.788;23.710;2023-04-26T07:00:52;-14922.56;;;-144.67;100.00
21877;BME280;11103;43.788;23.710;2023-04-26T07:03:17;-14922.56;;;-144.67;100.00
21877;BME280;11103;43.788;23.710;2023-04-26T07:05:43;-14922.56;;;-144.67;100.00
21877;BME280;11103;43.788;23.710;2023-04-26T07:08:10;-14922.56;;;-144.67;100.00
21877;BME280;11103;43.788;23.710;2023-04-26T07:10:38;-14922.56;;;-144.67;100.00
21877;BME280;11103;43.788;23.710;2023-04-26T07:13:03;-14922.56;;;-144.67;100.00
21877;BME280;11103;43.788;23.710;2023-04-26T07:15:29;-14922.56;;;-144.67;100.00
21877;BME280;11103;43.788;23.710;2023-04-26T07:17:55;-14922.56;;;-144.67;100.00
21877;BME280;11103;43.788;23.710;2023-04-26T07:20:21;-14922.56;;;-144.67;100.00
21877;BME280;11103;43.788;23.710;2023-04-26T07:22:47;-14922.56;;;-144.67;100.00
21877;BME280;11103;43.788;23.710;2023-04-26T07:25:12;-14922.56;;;-144.67;100.00
21877;BME280;11103;43.788;23.710;2023-04-26T07:27:38;-14922.56;;;-144.67;100.00
21877;BME280;11103;43.788;23.710;2023-04-26T07:30:03;-14922.56;;;-144.67;100.00
21877;BME280;11103;43.788;23.710;2023-04-26T07:32:29;-14922.56;;;-144.67;100.00
21877;BME280;11103;43.788;23.710;2023-04-26T07:34:55;-14922.56;;;-144.67;100.00
21877;BME280;11103;43.788;23.710;2023-04-26T07:37:20;-14922.56;;;-144.67;100.00
21877;BME280;11103;43.788;23.710;2023-04-26T07:39:46;-14922.56;;;-144.67;100.00
21877;BME280;11103;43.788;23.710;2023-04-26T07:42:11;-14922.56;;;-144.67;100.00
21877;BME280;11103;43.788;23.710;2023-04-26T07:44:36;-14922.56;;;-144.67;100.00
21877;BME280;11103;43.788;23.710;2023-04-26T07:47:02;-14922.56;;;-144.67;100.00
21877;BME280;11103;43.788;23.710;2023-04-26T07:49:27;-14922.56;;;-144.67;100.00
21877;BME280;11103;43.788;23.710;2023-04-26T07:51:53;-14922.56;;;-144.67;100.00
21877;BME280;11103;43.788;23.710;2023-04-26T07:54:20;-14922.56;;;-144.67;100.00
21877;BME280;11103;43.788;23.710;2023-04-26T07:56:46;-14922.56;;;-144.67;100.00
21877;BME280;11103;43.788;23.710;2023-04-26T07:59:11;-14922.56;;;-144.67;100.00
21877;BME280;11103;43.788;23.710;2023-04-26T08:01:36;-14922.56;;;-144.67;100.00
21877;BME280;11103;43.788;23.710;2023-04-26T08:04:03;-14922.56;;;-144.67;100.00
21877;BME280;11103;43.788;23.710;2023-04-26T08:06:29;-14922.56;;;-144.67;100.00
21877;BME280;11103;43.788;23.710;2023-04-26T08:08:55;-14922.56;;;-144.67;100.00
21877;BME280;11103;43.788;23.710;2023-04-26T08:11:21;-14922.56;;;-144.67;100.00
21877;BME280;11103;43.788;23.710;2023-04-26T08:13:46;-14922.56;;;-144.67;100.00
21877;BME280;11103;43.788;23.710;2023-04-26T08:16:12;-14922.56;;;-144.67;100.00
21877;BME280;11103;43.788;23.710;2023-04-26T08:18:37;-14922.56;;;-144.67;100.00
21877;BME280;11103;43.788;23.710;2023-04-26T08:21:03;-14922.56;;;-144.67;100.00
21877;BME280;11103;43.788;23.710;2023-04-26T08:23:32;-14922.56;;;-144.67;100.00
21877;BME280;11103;43.788;23.710;2023-04-26T08:25:58;-14922.56;;;-144.67;100.00
21877;BME280;11103;43.788;23.710;2023-04-26T08:28:24;-14922.56;;;-144.67;100.00
21877;BME280;11103;43.788;23.710;2023-04-26T08:30:50;-14922.56;;;-144.67;100.00
21877;BME280;11103;43.788;23.710;2023-04-26T08:33:17;-14184.13;;;-144.67;100.00
21877;BME280;11103;43.788;23.710;2023-04-26T08:35:42;-11480.41;;;-144.67;100.00
21877;BME280;11103;43.788;23.710;2023-04-26T08:38:07;-10742.63;;;-144.67;100.00
21877;BME280;11103;43.788;23.710;2023-04-26T08:40:33;-10988.56;;;-144.67;100.00
21877;BME280;11103;43.788;23.710;2023-04-26T08:43:00;-9266.56;;;-144.67;100.00
21877;BME280;11103;43.788;23.710;2023-04-26T08:45:26;-4341.59;;;-144.67;100.00
21877;BME280;11103;43.788;23.710;2023-04-26T08:48:02;-7297.47;;;-144.67;100.00
21877;BME280;11103;43.788;23.710;2023-04-26T08:50:30;-1876.31;;;-144.67;100.00
21877;BME280;11103;43.788;23.710;2023-04-26T08:52:55;-1629.66;;;-144.67;100.00
21877;BME280;11103;43.788;23.710;2023-04-26T08:55:21;-3848.69;;;-144.67;100.00
21877;BME280;11103;43.788;23.710;2023-04-26T08:57:49;3800.91;;;-144.67;100.00
21877;BME280;11103;43.788;23.710;2023-04-26T09:00:16;6272.31;;;-144.67;100.00
21877;BME280;11103;43.788;23.710;2023-04-26T09:02:47;13697.69;;;-144.67;99.35
21877;BME280;11103;43.788;23.710;2023-04-26T09:05:13;9735.41;;;-144.67;100.00
21877;BME280;11103;43.788;23.710;2023-04-26T09:07:44;15184.75;;;-144.67;98.58
21877;BME280;11103;43.788;23.710;2023-04-26T09:10:10;3553.84;;;-144.67;100.00
21877;BME280;11103;43.788;23.710;2023-04-26T09:12:37;16176.50;;;-144.67;98.56
21877;BME280;11103;43.788;23.710;2023-04-26T09:15:04;21636.50;;;-144.67;96.54
21877;BME280;11103;43.788;23.710;2023-04-26T09:17:36;20891.41;;;-144.67;95.95
21877;BME280;11103;43.788;23.710;2023-04-26T09:23:03;19153.56;;;-144.67;97.15
21877;BME280;11103;43.788;23.710;2023-04-26T09:25:30;837.66;;;-144.67;100.00
21877;BME280;11103;43.788;23.710;2023-04-26T09:27:56;3553.84;;;-144.67;100.00
21877;BME280;11103;43.788;23.710;2023-04-26T09:30:22;2318.94;;;-144.67;100.00
21877;BME280;11103;43.788;23.710;2023-04-26T09:32:55;10230.41;;;-144.67;100.00
21877;BME280;11103;43.788;23.710;2023-04-26T09:35:38;22878.66;;;-144.67;95.84
21877;BME280;11103;43.788;23.710;2023-04-26T09:40:38;19401.78;;;-144.67;96.72
21877;BME280;11103;43.788;23.710;2023-04-26T09:43:07;14441.13;;;-144.67;98.58
21877;BME280;11103;43.788;23.710;2023-04-26T09:48:24;25115.69;;;-144.67;94.62
21877;BME280;11103;43.788;23.710;2023-04-26T09:50:55;17168.56;;;-144.67;97.77
21877;BME280;11103;43.788;23.710;2023-04-26T09:53:44;29594.31;;;-144.67;92.83
21877;BME280;11103;43.788;23.710;2023-04-26T09:58:40;29345.34;;;-144.67;92.37
21877;BME280;11103;43.788;23.710;2023-04-26T10:01:23;24618.44;;;-144.67;94.71
21877;BME280;11103;43.788;23.710;2023-04-26T10:03:49;24618.44;;;-144.67;95.03
21877;BME280;11103;43.788;23.710;2023-04-26T10:06:16;43816.31;;;-144.67;88.38
21877;BME280;11103;43.788;23.710;2023-04-26T10:08:42;40317.59;;;-144.67;89.29
21877;BME280;11103;43.788;23.710;2023-04-26T10:11:07;39318.66;;;-144.67;89.70
21877;BME280;11103;43.788;23.710;2023-04-26T10:13:35;84469.28;;;-144.67;76.81
21877;BME280;11103;43.788;23.710;2023-04-26T10:16:02;51827.03;;;-144.67;86.81
21877;BME280;11103;43.788;23.710;2023-04-26T10:18:29;50323.59;;;-144.67;87.04
21877;BME280;11103;43.788;23.710;2023-04-26T10:20:59;66398.88;;;-144.67;83.72
21877;BME280;11103;43.788;23.710;2023-04-26T10:23:25;85653.63;;;-144.67;75.56
21877;BME280;11103;43.788;23.710;2023-04-26T10:25:52;86436.81;;;-144.67;72.44
21877;BME280;11103;43.788;23.710;2023-04-26T10:31:08;86035.31;;;-144.67;73.44
21877;BME280;11103;43.788;23.710;2023-04-26T10:33:34;86124.31;;;-144.67;70.26
21877;BME280;11103;43.788;23.710;2023-04-26T10:36:10;86114.41;;;-144.67;73.75
21877;BME280;11103;43.788;23.710;2023-04-26T10:38:42;82767.59;;;-144.67;79.44
21877;BME280;11103;43.788;23.710;2023-04-26T10:41:30;85997.72;;;-144.67;75.06
21877;BME280;11103;43.788;23.710;2023-04-26T10:43:57;86128.25;;;-144.67;71.08
21877;BME280;11103;43.788;23.710;2023-04-26T10:46:39;86169.81;;;-144.67;71.24
21877;BME280;11103;43.788;23.710;2023-04-26T10:49:18;86120.34;;;-144.67;68.80
21877;BME280;11103;43.788;23.710;2023-04-26T10:52:09;86126.28;;;-144.67;71.73
21877;BME280;11103;43.788;23.710;2023-04-26T10:54:57;86171.78;;;-144.67;72.11
21877;BME280;11103;43.788;23.710;2023-04-26T10:57:46;86179.69;;;-144.67;71.01
21877;BME280;11103;43.788;23.710;2023-04-26T11:00:19;86108.50;;;-144.67;72.97
21877;BME280;11103;43.788;23.710;2023-04-26T11:05:47;86088.72;;;-144.67;70.03
21877;BME280;11103;43.788;23.710;2023-04-26T11:10:56;86100.56;;;-144.67;70.82
21877;BME280;11103;43.788;23.710;2023-04-26T11:13:22;85863.25;;;-144.67;65.51
21877;BME280;11103;43.788;23.710;2023-04-26T11:15:58;85877.09;;;-144.67;65.02
21877;BME280;11103;43.788;23.710;2023-04-26T11:18:24;85835.56;;;-144.67;64.77
21877;BME280;11103;43.788;23.710;2023-04-26T11:20:50;85863.25;;;-144.67;65.83
21877;BME280;11103;43.788;23.710;2023-04-26T11:23:17;85730.75;;;-144.67;64.13
21877;BME280;11103;43.788;23.710;2023-04-26T11:25:43;85693.19;;;-144.67;62.12
21877;BME280;11103;43.788;23.710;2023-04-26T11:28:09;85548.81;;;-144.67;61.49
21877;BME280;11103;43.788;23.710;2023-04-26T11:30:34;85679.34;;;-144.67;63.08
21877;BME280;11103;43.788;23.710;2023-04-26T11:33:01;85612.09;;;-144.67;61.94
21877;BME280;11103;43.788;23.710;2023-04-26T11:35:37;85566.63;;;-144.67;62.35
21877;BME280;11103;43.788;23.710;2023-04-26T11:38:04;85594.28;;;-144.67;62.04
21877;BME280;11103;43.788;23.710;2023-04-26T11:40:30;85546.84;;;-144.67;62.01
21877;BME280;11103;43.788;23.710;2023-04-26T11:43:03;85424.22;;;-144.67;59.83
21877;BME280;11103;43.788;23.710;2023-04-26T11:45:31;85584.41;;;-144.67;62.65
21877;BME280;11103;43.788;23.710;2023-04-26T11:47:58;85527.06;;;-144.67;61.88
21877;BME280;11103;43.788;23.710;2023-04-26T11:50:24;85558.69;;;-144.67;62.91
21877;BME280;11103;43.788;23.710;2023-04-26T11:52:55;85499.38;;;-144.67;61.50
21877;BME280;11103;43.788;23.710;2023-04-26T11:55:26;85463.78;;;-144.67;61.03
21877;BME280;11103;43.788;23.710;2023-04-26T11:57:52;85707.03;;;-144.67;66.32
21877;BME280;11103;43.788;23.710;2023-04-26T12:00:18;85752.50;;;-144.67;67.55
21877;BME280;11103;43.788;23.710;2023-04-26T12:02:45;85572.53;;;-144.67;64.87
21877;BME280;11103;43.788;23.710;2023-04-26T12:05:25;85898.84;;;-144.67;62.36
21877;BME280;11103;43.788;23.710;2023-04-26T12:07:55;85206.72;;;-144.67;58.24
21877;BME280;11103;43.788;23.710;2023-04-26T12:10:30;85066.34;;;-144.67;54.21
21877;BME280;11103;43.788;23.710;2023-04-26T12:12:58;85194.88;;;-144.67;57.35
21877;BME280;11103;43.788;23.710;2023-04-26T12:15:32;85117.75;;;-144.67;54.93
21877;BME280;11103;43.788;23.710;2023-04-26T12:18:04;85262.09;;;-144.67;59.48
21877;BME280;11103;43.788;23.710;2023-04-26T12:20:32;85040.63;;;-144.67;57.33
21877;BME280;11103;43.788;23.710;2023-04-26T12:22:58;85056.47;;;-144.67;55.49
21877;BME280;11103;43.788;23.710;2023-04-26T12:25:24;85153.34;;;-144.67;56.34
21877;BME280;11103;43.788;23.710;2023-04-26T12:27:49;85226.50;;;-144.67;57.80
21877;BME280;11103;43.788;23.710;2023-04-26T12:30:15;85234.41;;;-144.67;57.77
21877;BME280;11103;43.788;23.710;2023-04-26T12:32:40;85307.56;;;-144.67;60.11